createdAt,value
2019-01-31T00:01:53.657Z,25.87
2019-01-31T00:04:35.129Z,23.23
2019-01-31T00:07:16.268Z,24.67
2019-01-31T00:09:57.582Z,23.57
2019-01-31T00:12:38.210Z,19.87
2019-01-31T00:15:19.112Z,22.83
2019-01-31T00:18:00.481Z,24.60
2019-01-31T00:20:41.103Z,21.83
2019-01-31T00:25:44.188Z,19.40
2019-01-31T00:28:25.103Z,24.30
2019-01-31T00:31:06.340Z,19.23
2019-01-31T00:33:47.817Z,19.17
2019-01-31T00:36:28.587Z,23.40
2019-01-31T00:39:09.918Z,18.87
2019-01-31T00:41:50.508Z,21.00
2019-01-31T00:47:44.043Z,18.73
2019-01-31T00:50:25.417Z,16.17
2019-01-31T00:53:05.978Z,14.20
2019-01-31T00:55:46.590Z,18.03
2019-01-31T00:58:27.140Z,19.23
2019-01-31T01:01:08.509Z,19.77
2019-01-31T01:03:49.872Z,19.67
2019-01-31T01:06:31.235Z,20.00
2019-01-31T01:09:12.014Z,18.03
2019-01-31T01:11:53.614Z,21.00
2019-01-31T01:14:34.256Z,18.40
2019-01-31T01:17:15.044Z,19.47
2019-01-31T01:19:56.304Z,20.30
2019-01-31T01:22:37.051Z,18.60
2019-01-31T01:25:17.801Z,16.93
2019-01-31T01:27:58.414Z,14.60
2019-01-31T01:30:39.601Z,16.97
2019-01-31T03:42:24.337Z,13.47
2019-01-31T03:45:50.755Z,13.47
2019-01-31T03:48:50.626Z,15.40
2019-01-31T03:51:48.887Z,13.43
2019-01-31T03:54:38.565Z,14.37
2019-01-31T03:57:51.882Z,15.80
2019-01-31T04:01:02.655Z,12.97
2019-01-31T04:03:56.188Z,15.83
2019-01-31T04:06:28.787Z,15.37
2019-01-31T04:08:58.118Z,13.57
2019-01-31T04:11:27.463Z,12.57
2019-01-31T04:13:56.855Z,14.23
2019-01-31T04:16:26.187Z,12.73
2019-01-31T04:18:55.520Z,11.63
2019-01-31T04:21:24.856Z,14.27
2019-01-31T04:23:54.161Z,16.37
2019-01-31T04:26:24.015Z,13.20
2019-01-31T04:28:53.334Z,13.20
2019-01-31T04:31:22.633Z,12.20
2019-01-31T04:33:52.021Z,16.27
2019-01-31T04:36:21.407Z,18.93
2019-01-31T04:38:50.820Z,18.03
2019-01-31T04:41:20.254Z,21.93
2019-01-31T04:43:49.650Z,22.33
2019-01-31T04:46:19.066Z,14.93
2019-01-31T04:48:48.432Z,13.20
2019-01-31T04:51:17.775Z,15.10
2019-01-31T04:53:47.222Z,11.83
2019-01-31T04:56:16.775Z,14.93
2019-01-31T04:58:46.170Z,15.87
2019-01-31T05:01:15.572Z,15.07
2019-01-31T05:03:44.934Z,16.00
2019-01-31T05:06:14.238Z,14.10
2019-01-31T05:08:43.579Z,18.90
2019-01-31T05:11:12.925Z,19.23
2019-01-31T05:13:42.313Z,19.07
2019-01-31T05:16:11.791Z,19.87
2019-01-31T05:18:41.186Z,12.33
2019-01-31T05:21:10.525Z,13.97
2019-01-31T05:23:39.893Z,15.27
2019-01-31T05:26:08.885Z,16.10
2019-01-31T05:28:38.276Z,14.53
2019-01-31T05:31:07.653Z,11.83
2019-01-31T05:33:37.172Z,17.67
2019-01-31T05:36:06.556Z,16.00
2019-01-31T05:38:35.881Z,15.47
2019-01-31T05:41:05.195Z,14.73
2019-01-31T05:43:34.556Z,19.27
2019-01-31T05:46:03.894Z,13.37
2019-01-31T05:48:33.251Z,14.67
2019-01-31T05:51:02.612Z,16.03
2019-01-31T05:53:32.000Z,14.37
2019-01-31T05:56:01.331Z,11.23
2019-01-31T05:58:30.658Z,15.40
2019-01-31T06:01:00.053Z,15.30
2019-01-31T06:03:29.437Z,11.30
2019-01-31T06:05:58.805Z,15.57
2019-01-31T06:08:28.244Z,10.90
2019-01-31T06:11:07.194Z,12.47
2019-01-31T06:13:29.279Z,18.47
2019-01-31T06:15:58.741Z,13.60
2019-01-31T06:18:28.108Z,11.57
2019-01-31T06:20:57.569Z,11.90
2019-01-31T06:23:26.948Z,11.17
2019-01-31T06:25:56.454Z,12.33
2019-01-31T06:28:25.871Z,17.40
2019-01-31T06:30:55.286Z,19.03
2019-01-31T06:33:24.628Z,17.70
2019-01-31T06:35:54.147Z,23.73
2019-01-31T06:38:23.477Z,17.20
2019-01-31T06:40:53.089Z,18.07
2019-01-31T06:43:22.549Z,15.43
2019-01-31T06:45:52.037Z,24.90
2019-01-31T06:48:21.478Z,14.20
2019-01-31T06:50:50.944Z,14.50
2019-01-31T06:53:20.347Z,14.37
2019-01-31T06:55:49.883Z,14.03
2019-01-31T06:58:19.270Z,18.33
2019-01-31T07:00:48.622Z,17.33
2019-01-31T07:03:17.963Z,14.90
2019-01-31T07:05:47.322Z,18.10
2019-01-31T07:08:16.866Z,11.57
2019-01-31T07:10:46.302Z,11.83
2019-01-31T07:13:15.756Z,11.70
2019-01-31T07:15:45.687Z,12.90
2019-01-31T07:18:15.440Z,15.63
2019-01-31T07:20:44.971Z,19.27
2019-01-31T07:23:14.484Z,21.67
2019-01-31T07:25:43.903Z,11.70
2019-01-31T07:28:13.276Z,12.30
2019-01-31T07:30:42.612Z,11.30
2019-01-31T07:33:11.993Z,11.93
2019-01-31T07:35:41.350Z,12.43
2019-01-31T07:38:10.780Z,11.80
2019-01-31T07:40:40.114Z,10.77
2019-01-31T07:43:09.471Z,18.77
2019-01-31T07:45:38.860Z,13.50
2019-01-31T07:48:08.310Z,15.33
2019-01-31T07:50:37.707Z,14.13
2019-01-31T07:53:07.124Z,17.87
2019-01-31T07:55:36.476Z,35.63
2019-01-31T07:58:05.860Z,39.20
2019-01-31T08:00:35.230Z,30.07
2019-01-31T08:03:05.180Z,29.27
2019-01-31T08:05:34.539Z,25.47
2019-01-31T08:08:03.996Z,28.43
2019-01-31T08:10:36.203Z,24.23
2019-01-31T08:13:05.678Z,29.30
2019-01-31T08:15:34.999Z,21.57
2019-01-31T08:18:04.359Z,19.80
2019-01-31T08:20:33.930Z,10.93
2019-01-31T08:23:03.177Z,19.60
2019-01-31T08:25:32.521Z,12.70
2019-01-31T08:28:02.188Z,8.53
2019-01-31T08:30:33.591Z,11.83
2019-01-31T08:33:03.007Z,16.00
2019-01-31T08:35:32.335Z,13.23
2019-01-31T08:38:01.695Z,16.60
2019-01-31T08:40:30.978Z,11.37
2019-01-31T08:43:00.342Z,18.10
2019-01-31T08:45:29.951Z,28.20
2019-01-31T08:47:59.853Z,15.43
2019-01-31T08:50:29.697Z,19.60
2019-01-31T08:52:59.507Z,18.57
2019-01-31T08:55:29.080Z,15.70
2019-01-31T08:57:58.759Z,14.17
2019-01-31T09:00:29.771Z,23.57
2019-01-31T09:03:00.073Z,14.10
2019-01-31T09:05:29.884Z,13.77
2019-01-31T09:07:59.938Z,16.60
2019-01-31T09:10:35.575Z,18.37
2019-01-31T09:13:08.168Z,11.83
2019-01-31T09:15:38.150Z,19.70
2019-01-31T09:18:08.487Z,17.30
2019-01-31T09:20:51.377Z,15.33
2019-01-31T09:23:36.710Z,14.97
2019-01-31T09:26:59.181Z,14.97
2019-01-31T09:30:07.182Z,13.63
2019-01-31T09:33:13.924Z,17.77
2019-01-31T09:36:12.172Z,16.67
2019-01-31T09:39:13.746Z,10.87
2019-01-31T09:42:26.104Z,10.50
2019-01-31T09:45:28.012Z,13.33
2019-01-31T09:48:21.164Z,9.90
2019-01-31T09:51:27.480Z,12.17
2019-01-31T09:54:20.123Z,19.73
2019-01-31T09:57:24.636Z,9.43
2019-01-31T10:00:27.234Z,17.47
2019-01-31T10:03:20.876Z,11.60
2019-01-31T10:06:27.333Z,7.63
2019-01-31T10:09:33.590Z,11.47
2019-01-31T10:12:42.480Z,9.43
2019-01-31T10:15:37.717Z,8.60
2019-01-31T10:18:47.024Z,8.97
2019-01-31T10:21:34.463Z,8.13
2019-01-31T10:24:54.516Z,13.77
2019-01-31T10:27:49.004Z,12.47
2019-01-31T10:30:53.649Z,8.77
2019-01-31T10:33:53.820Z,10.37
2019-01-31T10:36:47.457Z,13.87
2019-01-31T10:39:43.895Z,13.17
2019-01-31T10:42:52.339Z,9.20
2019-01-31T10:46:08.483Z,9.83
2019-01-31T10:49:11.498Z,10.77
2019-01-31T10:52:10.442Z,11.03
2019-01-31T10:55:17.379Z,9.83
2019-01-31T10:58:35.250Z,21.20
2019-01-31T11:01:44.315Z,11.07
2019-01-31T11:04:54.337Z,8.50
2019-01-31T11:07:59.779Z,13.20
2019-01-31T11:10:38.524Z,12.90
2019-01-31T11:13:56.004Z,8.93
2019-01-31T11:17:07.028Z,14.23
2019-01-31T11:19:59.121Z,16.20
2019-01-31T11:22:56.803Z,14.87
2019-01-31T11:26:05.230Z,11.87
2019-01-31T11:29:18.491Z,16.90
2019-01-31T11:32:21.251Z,13.77
2019-01-31T11:35:33.743Z,15.07
2019-01-31T11:38:34.587Z,18.13
2019-01-31T11:41:43.884Z,16.50
2019-01-31T11:44:50.020Z,10.30
2019-01-31T11:48:03.438Z,13.17
2019-01-31T11:51:09.173Z,13.33
2019-01-31T11:54:18.736Z,9.03
2019-01-31T11:57:39.147Z,9.53
2019-01-31T12:00:12.801Z,14.03
2019-01-31T12:02:42.132Z,14.17
2019-01-31T12:05:11.856Z,12.87
2019-01-31T12:07:41.375Z,15.27
2019-01-31T12:10:11.279Z,11.47
2019-01-31T12:12:43.638Z,10.00
2019-01-31T12:15:11.945Z,12.13
2019-01-31T12:17:41.343Z,13.40
2019-01-31T12:20:11.224Z,10.97
2019-01-31T12:22:40.560Z,9.00
2019-01-31T12:25:09.951Z,10.50
2019-01-31T12:27:39.368Z,15.60
2019-01-31T12:30:16.595Z,11.93
2019-01-31T12:32:46.146Z,11.67
2019-01-31T12:35:15.564Z,12.03
2019-01-31T12:37:44.892Z,16.17
2019-01-31T12:40:16.284Z,19.20
2019-01-31T12:42:45.876Z,19.17
2019-01-31T12:45:16.836Z,14.90
2019-01-31T12:47:46.341Z,13.60
2019-01-31T12:50:18.481Z,19.43
2019-01-31T12:52:47.860Z,17.97
2019-01-31T12:55:17.267Z,13.47
2019-01-31T12:57:46.614Z,16.30
2019-01-31T13:00:19.932Z,17.67
2019-01-31T13:02:49.464Z,15.90
2019-01-31T13:05:18.962Z,14.93
2019-01-31T13:07:48.313Z,14.93
2019-01-31T13:10:17.753Z,20.80
2019-01-31T13:12:48.799Z,16.10
2019-01-31T13:15:18.507Z,18.17
2019-01-31T13:17:48.133Z,16.10
2019-01-31T13:20:21.978Z,21.80
2019-01-31T13:22:53.559Z,17.43
2019-01-31T13:25:24.522Z,16.03
2019-01-31T13:27:54.047Z,14.77
2019-01-31T13:30:23.453Z,15.10
2019-01-31T13:32:53.664Z,14.43
2019-01-31T13:35:23.023Z,15.77
2019-01-31T13:37:52.367Z,15.83
2019-01-31T13:40:23.508Z,15.40
2019-01-31T13:42:53.632Z,14.03
2019-01-31T13:45:28.657Z,18.27
2019-01-31T13:48:00.462Z,16.03
2019-01-31T13:50:29.893Z,19.23
2019-01-31T13:52:59.252Z,18.03
2019-01-31T13:55:30.082Z,17.67
2019-01-31T13:57:59.564Z,22.30
2019-01-31T14:00:28.886Z,23.70
2019-01-31T14:02:58.256Z,14.43
2019-01-31T14:05:29.789Z,18.33
2019-01-31T14:07:58.692Z,16.03
2019-01-31T14:10:28.072Z,20.43
2019-01-31T14:12:57.380Z,18.20
2019-01-31T14:15:34.166Z,14.27
2019-01-31T14:18:03.706Z,19.27
2019-01-31T14:20:33.189Z,18.03
2019-01-31T14:23:02.556Z,19.90
2019-01-31T14:25:31.919Z,19.30
2019-01-31T14:28:01.254Z,21.83
2019-01-31T14:30:32.867Z,21.77
2019-01-31T14:33:02.507Z,18.53
2019-01-31T14:35:32.056Z,20.37
2019-01-31T14:38:03.939Z,24.53
2019-01-31T14:40:33.351Z,19.07
2019-01-31T14:43:02.685Z,21.27
2019-01-31T14:45:32.110Z,20.70
2019-01-31T14:48:01.432Z,25.80
2019-01-31T14:50:32.296Z,18.17
2019-01-31T14:53:01.656Z,21.07
2019-01-31T14:55:31.040Z,15.40
2019-01-31T14:58:00.402Z,22.47
2019-01-31T15:00:31.001Z,19.97
2019-01-31T15:03:00.355Z,17.73
2019-01-31T15:05:29.768Z,17.13
2019-01-31T15:07:59.152Z,17.33
2019-01-31T15:10:29.026Z,19.63
2019-01-31T15:12:58.562Z,18.93
2019-01-31T15:15:27.937Z,14.93
2019-01-31T15:17:57.355Z,17.37
2019-01-31T15:20:37.581Z,17.80
2019-01-31T15:23:00.066Z,18.47
2019-01-31T15:25:29.389Z,21.17
2019-01-31T15:27:58.798Z,21.53
2019-01-31T15:30:30.536Z,21.37
2019-01-31T15:33:00.461Z,25.87
2019-01-31T15:35:29.846Z,26.93
2019-01-31T15:37:59.195Z,29.73
2019-01-31T15:40:31.732Z,27.53
2019-01-31T15:43:01.109Z,29.60
2019-01-31T15:45:30.472Z,28.13
2019-01-31T15:47:59.813Z,36.07
2019-01-31T15:50:29.164Z,28.93
2019-01-31T15:52:58.550Z,35.37
2019-01-31T15:55:28.055Z,97.00
2019-01-31T15:57:57.608Z,40.73
2019-01-31T16:00:36.580Z,33.13
2019-01-31T16:03:07.285Z,37.93
2019-01-31T16:05:37.040Z,39.13
2019-01-31T16:08:06.682Z,45.83
2019-01-31T16:10:36.078Z,48.47
2019-01-31T16:13:06.257Z,41.30
2019-01-31T16:15:35.832Z,42.43
2019-01-31T16:18:06.459Z,48.67
2019-01-31T16:20:35.926Z,46.33
2019-01-31T16:23:05.777Z,44.77
2019-01-31T16:25:35.128Z,40.80
2019-01-31T16:28:04.896Z,42.07
2019-01-31T16:30:34.484Z,41.23
2019-01-31T16:33:04.076Z,55.92
2019-01-31T16:35:33.554Z,49.60
2019-01-31T16:38:02.921Z,40.60
2019-01-31T16:40:32.317Z,44.33
2019-01-31T16:43:01.755Z,42.83
2019-01-31T16:45:31.145Z,36.40
2019-01-31T16:48:00.499Z,40.20
2019-01-31T16:50:29.897Z,39.73
2019-01-31T16:52:59.282Z,37.40
2019-01-31T16:55:28.735Z,43.87
2019-01-31T16:57:58.089Z,41.63
2019-01-31T17:00:29.151Z,43.67
2019-01-31T17:02:58.632Z,39.10
2019-01-31T17:05:29.904Z,46.57
2019-01-31T17:07:59.279Z,44.87
2019-01-31T17:10:28.834Z,43.07
2019-01-31T17:12:58.204Z,41.83
2019-01-31T17:15:27.843Z,50.20
2019-01-31T17:17:57.367Z,40.23
2019-01-31T17:20:32.672Z,43.00
2019-01-31T17:23:04.797Z,47.23
2019-01-31T17:25:34.211Z,42.93
2019-01-31T17:28:03.788Z,45.43
2019-01-31T17:30:33.181Z,45.03
2019-01-31T17:33:02.550Z,38.63
2019-01-31T17:35:31.893Z,44.07
2019-01-31T17:38:01.276Z,43.70
2019-01-31T17:40:33.178Z,44.00
2019-01-31T17:43:02.544Z,44.80
2019-01-31T17:45:31.930Z,45.73
2019-01-31T17:48:01.303Z,41.17
2019-01-31T17:50:30.669Z,41.63
2019-01-31T17:53:00.032Z,40.93
2019-01-31T17:55:29.362Z,48.23
2019-01-31T17:57:59.165Z,39.00
2019-01-31T18:00:40.717Z,40.07
2019-01-31T18:03:10.095Z,40.60
2019-01-31T18:05:39.525Z,40.17
2019-01-31T18:08:09.513Z,44.17
2019-01-31T18:10:39.120Z,43.93
2019-01-31T18:13:08.481Z,46.07
2019-01-31T18:15:42.327Z,44.43
2019-01-31T18:18:09.006Z,42.17
2019-01-31T18:20:38.400Z,44.30
2019-01-31T18:23:07.801Z,46.20
2019-01-31T18:25:37.144Z,38.57
2019-01-31T18:28:06.597Z,39.77
2019-01-31T18:30:36.059Z,34.23
2019-01-31T18:33:05.696Z,32.17
2019-01-31T18:35:35.093Z,30.67
2019-01-31T18:38:04.886Z,37.63
2019-01-31T18:40:34.454Z,34.07
2019-01-31T18:43:03.788Z,39.97
2019-01-31T18:45:33.359Z,41.30
2019-01-31T18:48:03.163Z,38.37
2019-01-31T18:50:34.677Z,39.13
2019-01-31T18:53:04.229Z,33.47
2019-01-31T18:55:33.826Z,30.07
2019-01-31T18:58:03.204Z,35.60
2019-01-31T19:00:35.057Z,30.57
2019-01-31T19:03:04.742Z,30.63
2019-01-31T19:05:34.170Z,35.13
2019-01-31T19:08:05.610Z,26.50
2019-01-31T19:10:42.812Z,29.97
2019-01-31T19:13:06.270Z,28.83
2019-01-31T19:15:35.662Z,35.80
2019-01-31T19:18:06.515Z,30.43
2019-01-31T19:20:36.284Z,28.73
2019-01-31T19:23:07.032Z,30.07
2019-01-31T19:25:36.413Z,27.82
2019-01-31T19:28:06.549Z,25.50
2019-01-31T19:30:37.620Z,26.53
2019-01-31T19:33:07.756Z,25.77
2019-01-31T19:35:37.576Z,24.03
2019-01-31T19:38:08.427Z,27.63
2019-01-31T19:40:39.728Z,30.30
2019-01-31T19:43:09.135Z,24.80
2019-01-31T19:45:43.577Z,22.87
2019-01-31T19:48:13.484Z,24.57
2019-01-31T19:50:43.704Z,23.60
2019-01-31T19:53:13.153Z,19.83
2019-01-31T19:55:43.004Z,22.27
2019-01-31T19:58:12.620Z,21.20
2019-01-31T20:00:42.093Z,23.83
2019-01-31T20:03:11.858Z,26.13
2019-01-31T20:05:42.009Z,20.30
2019-01-31T20:08:12.343Z,20.80
2019-01-31T20:10:42.017Z,23.47
2019-01-31T20:13:11.525Z,27.13
2019-01-31T20:15:41.980Z,21.47
2019-01-31T20:18:11.705Z,25.77
2019-01-31T20:20:42.712Z,23.70
2019-01-31T20:23:12.361Z,23.40
2019-01-31T20:25:41.799Z,20.67
2019-01-31T20:28:12.092Z,22.60
2019-01-31T20:30:41.481Z,21.93
2019-01-31T20:33:11.325Z,21.23
2019-01-31T20:35:41.011Z,18.13
2019-01-31T20:38:12.984Z,18.27
2019-01-31T20:40:43.381Z,17.23
2019-01-31T20:43:13.012Z,17.83
2019-01-31T20:45:42.417Z,19.60
2019-01-31T20:48:11.872Z,20.70
2019-01-31T20:50:42.412Z,18.53
2019-01-31T20:53:11.948Z,17.73
2019-01-31T20:55:41.579Z,22.20
2019-01-31T20:58:10.944Z,18.10
2019-01-31T21:00:47.462Z,19.83
2019-01-31T21:03:16.855Z,24.30
2019-01-31T21:05:46.260Z,20.93
2019-01-31T21:08:15.870Z,22.30
2019-01-31T21:10:45.464Z,21.93
2019-01-31T21:13:14.936Z,24.83
2019-01-31T21:15:44.607Z,22.37
2019-01-31T21:18:14.087Z,22.23
2019-01-31T21:20:43.607Z,22.77
2019-01-31T21:23:13.163Z,22.83
2019-01-31T21:25:42.690Z,19.37
2019-01-31T21:28:12.073Z,22.67
2019-01-31T21:30:43.102Z,19.73
2019-01-31T21:33:12.491Z,20.17
2019-01-31T21:35:42.631Z,17.43
2019-01-31T21:38:12.205Z,14.87
2019-01-31T21:40:41.760Z,20.60
2019-01-31T21:43:11.236Z,20.90
2019-01-31T21:45:41.214Z,16.37
2019-01-31T21:48:11.291Z,15.50
2019-01-31T21:50:40.732Z,16.57
2019-01-31T21:53:10.320Z,17.40
2019-01-31T21:55:39.955Z,18.43
2019-01-31T21:58:09.528Z,17.47
2019-01-31T22:00:39.288Z,14.00
2019-01-31T22:03:09.287Z,19.57
2019-01-31T22:05:38.740Z,15.97
2019-01-31T22:08:08.195Z,17.77
2019-01-31T22:10:37.554Z,14.67
2019-01-31T22:13:07.069Z,15.57
2019-01-31T22:15:36.857Z,13.37
2019-01-31T22:18:07.290Z,11.97
2019-01-31T22:20:36.885Z,14.77
2019-01-31T22:23:06.572Z,14.07
2019-01-31T22:25:35.894Z,11.23
2019-01-31T22:28:05.910Z,10.43
2019-01-31T22:30:36.988Z,14.13
2019-01-31T22:33:08.057Z,12.77
2019-01-31T22:35:37.500Z,11.63
2019-01-31T22:38:07.188Z,12.03
2019-01-31T22:40:36.647Z,10.80
2019-01-31T22:43:06.460Z,11.87
2019-01-31T22:45:35.873Z,11.33
2019-01-31T22:48:07.007Z,10.43
2019-01-31T22:50:36.497Z,8.93
2019-01-31T22:53:06.173Z,9.83
2019-01-31T22:55:35.488Z,9.00
2019-01-31T22:58:05.508Z,9.13
2019-01-31T23:01:27.221Z,8.47
2019-01-31T23:03:56.762Z,8.27
2019-01-31T23:06:26.347Z,8.23
2019-01-31T23:08:55.739Z,9.10
2019-01-31T23:11:25.044Z,8.23
2019-01-31T23:13:54.654Z,9.30
2019-01-31T23:16:24.156Z,7.77
2019-01-31T23:18:53.532Z,6.77
2019-01-31T23:21:22.894Z,7.20
2019-01-31T23:23:52.448Z,5.83
2019-01-31T23:26:24.533Z,7.37
2019-01-31T23:28:53.894Z,4.80
2019-01-31T23:31:23.231Z,4.13
2019-01-31T23:33:52.572Z,4.87
2019-01-31T23:36:21.893Z,6.33
2019-01-31T23:38:51.221Z,5.53
2019-01-31T23:41:20.602Z,7.10
2019-01-31T23:43:49.911Z,4.73
2019-01-31T23:46:19.361Z,6.83
2019-01-31T23:48:50.598Z,7.10
2019-01-31T23:51:19.899Z,4.20
2019-01-31T23:53:49.282Z,6.23
2019-01-31T23:56:19.005Z,4.77
2019-01-31T23:58:48.417Z,7.30
